createdAt,value
2018-05-08T00:00:25.486Z,75.90
2018-05-08T00:02:53.013Z,76.50
2018-05-08T00:05:20.575Z,76.90
2018-05-08T00:07:48.139Z,77.10
2018-05-08T00:10:15.695Z,77.30
2018-05-08T00:12:43.263Z,77.50
2018-05-08T00:15:10.807Z,77.70
2018-05-08T00:17:38.349Z,77.60
2018-05-08T00:20:05.881Z,77.60
2018-05-08T00:22:33.442Z,77.80
2018-05-08T00:25:01.010Z,78.00
2018-05-08T00:27:28.574Z,78.10
2018-05-08T00:29:56.125Z,77.70
2018-05-08T00:32:23.663Z,77.60
2018-05-08T00:34:51.241Z,77.70
2018-05-08T00:37:18.773Z,77.70
2018-05-08T00:39:47.077Z,77.70
2018-05-08T00:42:14.646Z,77.80
2018-05-08T00:44:42.210Z,77.70
2018-05-08T00:47:09.769Z,78.00
2018-05-08T00:49:37.313Z,78.00
2018-05-08T00:52:05.639Z,77.80
2018-05-08T00:54:44.799Z,77.80
2018-05-08T00:57:12.350Z,78.30
2018-05-08T00:59:39.893Z,78.70
2018-05-08T01:02:07.425Z,78.30
2018-05-08T01:04:35.723Z,79.90
2018-05-08T01:07:03.279Z,79.90
2018-05-08T01:09:30.828Z,82.70
2018-05-08T01:11:59.162Z,82.10
2018-05-08T01:14:26.709Z,82.10
2018-05-08T01:16:54.299Z,81.90
2018-05-08T01:19:21.879Z,81.70
2018-05-08T01:21:49.442Z,81.60
2018-05-08T01:24:17.009Z,81.30
2018-05-08T01:26:44.557Z,81.10
2018-05-08T01:29:12.093Z,81.30
2018-05-08T01:31:39.661Z,81.20
2018-05-08T01:34:07.226Z,81.00
2018-05-08T01:36:34.788Z,80.40
2018-05-08T01:39:02.337Z,80.50
2018-05-08T01:41:29.913Z,80.70
2018-05-08T01:43:57.453Z,81.00
2018-05-08T01:46:24.988Z,81.10
2018-05-08T01:48:52.555Z,81.10
2018-05-08T01:51:20.862Z,81.30
2018-05-08T01:53:48.471Z,81.30
2018-05-08T01:56:16.007Z,81.40
2018-05-08T01:58:43.542Z,81.70
2018-05-08T02:01:11.825Z,82.30
2018-05-08T02:03:40.158Z,82.80
2018-05-08T02:06:07.720Z,82.80
2018-05-08T02:08:35.268Z,83.40
2018-05-08T02:11:02.804Z,83.90
2018-05-08T02:13:31.122Z,84.30
2018-05-08T02:15:58.678Z,84.30
2018-05-08T02:18:26.215Z,84.40
2018-05-08T02:20:53.774Z,84.60
2018-05-08T02:23:22.098Z,85.20
2018-05-08T02:25:49.654Z,85.20
2018-05-08T02:28:17.172Z,85.30
2018-05-08T02:30:45.562Z,84.40
2018-05-08T02:33:13.896Z,84.90
2018-05-08T02:35:41.454Z,85.00
2018-05-08T02:38:08.991Z,85.20
2018-05-08T02:40:36.546Z,85.30
2018-05-08T02:43:04.114Z,85.30
2018-05-08T02:45:31.666Z,85.00
2018-05-08T02:47:59.994Z,85.30
2018-05-08T02:50:27.558Z,85.30
2018-05-08T02:52:55.125Z,85.30
2018-05-08T02:55:22.679Z,84.80
2018-05-08T02:57:50.216Z,84.60
2018-05-08T03:00:17.766Z,84.80
2018-05-08T03:02:46.067Z,84.70
2018-05-08T03:05:13.590Z,84.70
2018-05-08T03:07:41.130Z,84.40
2018-05-08T03:10:08.663Z,84.20
2018-05-08T03:12:36.190Z,84.20
2018-05-08T03:15:04.510Z,84.50
2018-05-08T03:17:32.061Z,84.40
2018-05-08T03:19:59.589Z,84.30
2018-05-08T03:22:27.240Z,83.30
2018-05-08T03:24:55.490Z,83.30
2018-05-08T03:27:23.047Z,83.30
2018-05-08T03:29:50.569Z,83.00
2018-05-08T03:32:18.867Z,82.80
2018-05-08T03:34:46.397Z,82.80
2018-05-08T03:37:13.946Z,83.00
2018-05-08T03:39:41.501Z,83.00
2018-05-08T03:42:09.043Z,83.30
2018-05-08T03:44:36.595Z,83.50
2018-05-08T03:47:04.158Z,83.20
2018-05-08T03:49:31.761Z,82.90
2018-05-08T03:51:59.295Z,83.00
2018-05-08T03:54:26.825Z,82.80
2018-05-08T03:56:54.355Z,82.50
2018-05-08T03:59:21.877Z,82.30
2018-05-08T04:02:01.339Z,82.00
2018-05-08T04:04:40.875Z,82.10
2018-05-08T04:07:20.157Z,82.10
2018-05-08T04:09:48.445Z,82.20
2018-05-08T04:12:16.742Z,81.80
2018-05-08T04:14:44.297Z,81.80
2018-05-08T04:17:11.859Z,81.60
2018-05-08T04:19:40.405Z,81.90
2018-05-08T04:22:08.195Z,81.40
2018-05-08T04:24:35.805Z,81.80
2018-05-08T04:27:03.348Z,81.60
2018-05-08T04:29:31.653Z,82.30
2018-05-08T04:31:59.179Z,82.30
2018-05-08T04:34:27.483Z,82.60
2018-05-08T04:36:55.057Z,82.60
2018-05-08T04:39:22.590Z,82.50
2018-05-08T04:41:50.900Z,81.90
2018-05-08T04:44:18.428Z,81.80
2018-05-08T04:46:45.972Z,81.60
2018-05-08T04:49:13.490Z,81.80
2018-05-08T04:51:41.023Z,81.50
2018-05-08T04:54:09.346Z,81.60
2018-05-08T04:56:36.866Z,81.70
2018-05-08T04:59:05.187Z,81.70
2018-05-08T05:01:32.747Z,81.80
2018-05-08T05:04:00.311Z,81.20
2018-05-08T05:06:27.878Z,81.60
2018-05-08T05:08:55.414Z,82.20
2018-05-08T05:11:23.740Z,82.60
2018-05-08T05:13:51.283Z,82.50
2018-05-08T05:16:18.827Z,83.10
2018-05-08T05:18:46.428Z,82.60
2018-05-08T05:21:13.985Z,82.80
2018-05-08T05:23:41.511Z,81.20
2018-05-08T05:26:09.810Z,77.00
2018-05-08T05:28:37.362Z,77.00
2018-05-08T05:31:04.930Z,77.40
2018-05-08T05:33:32.466Z,76.00
2018-05-08T05:35:59.999Z,74.80
2018-05-08T05:38:27.563Z,73.10
2018-05-08T05:40:55.143Z,72.40
2018-05-08T05:43:22.705Z,72.40
2018-05-08T05:45:50.243Z,70.00
2018-05-08T05:48:17.802Z,69.60
2018-05-08T05:50:45.338Z,69.10
2018-05-08T05:53:13.646Z,65.80
2018-05-08T05:55:41.197Z,65.70
2018-05-08T05:58:08.731Z,64.60
2018-05-08T06:00:36.263Z,63.90
2018-05-08T06:03:03.822Z,62.20
2018-05-08T06:05:31.349Z,61.60
2018-05-08T06:07:58.875Z,59.50
2018-05-08T06:10:26.438Z,58.70
2018-05-08T06:12:53.987Z,59.20
2018-05-08T06:15:21.534Z,59.80
2018-05-08T06:17:49.061Z,60.20
2018-05-08T06:20:16.607Z,58.90
2018-05-08T06:22:44.948Z,55.80
2018-05-08T06:25:12.517Z,55.70
2018-05-08T06:27:40.055Z,53.80
2018-05-08T06:30:07.588Z,52.60
2018-05-08T06:32:35.911Z,49.90
2018-05-08T06:35:03.477Z,49.90
2018-05-08T06:37:31.094Z,50.40
2018-05-08T06:39:59.488Z,49.70
2018-05-08T06:42:26.982Z,49.70
2018-05-08T06:44:54.522Z,48.40
2018-05-08T06:47:22.099Z,47.80
2018-05-08T06:49:49.666Z,49.40
2018-05-08T06:52:17.200Z,47.90
2018-05-08T06:54:44.737Z,48.00
2018-05-08T06:57:12.290Z,49.00
2018-05-08T06:59:39.821Z,49.20
2018-05-08T07:02:07.367Z,48.00
2018-05-08T07:04:34.935Z,48.30
2018-05-08T07:07:02.506Z,49.40
2018-05-08T07:09:30.094Z,49.90
2018-05-08T07:11:57.674Z,50.00
2018-05-08T07:14:25.242Z,49.20
2018-05-08T07:16:52.798Z,49.70
2018-05-08T07:19:20.407Z,50.60
2018-05-08T07:21:47.941Z,48.50
2018-05-08T07:24:15.506Z,48.60
2018-05-08T07:26:43.057Z,49.10
2018-05-08T07:29:10.622Z,49.70
2018-05-08T07:31:38.168Z,48.90
2018-05-08T07:34:05.731Z,48.80
2018-05-08T07:36:33.274Z,48.20
2018-05-08T07:39:00.835Z,47.70
2018-05-08T07:41:28.406Z,48.00
2018-05-08T07:43:55.981Z,47.90
2018-05-08T07:46:23.540Z,46.40
2018-05-08T07:48:51.109Z,47.30
2018-05-08T07:51:18.674Z,46.10
2018-05-08T07:53:46.207Z,48.00
2018-05-08T07:56:13.770Z,47.50
2018-05-08T07:58:41.337Z,47.00
2018-05-08T08:01:08.906Z,44.80
2018-05-08T08:03:36.508Z,45.90
2018-05-08T08:06:04.131Z,47.00
2018-05-08T08:08:31.722Z,48.00
2018-05-08T08:10:59.326Z,46.50
2018-05-08T08:13:26.903Z,46.40
2018-05-08T08:18:29.148Z,44.90
2018-05-08T08:20:57.422Z,45.10
2018-05-08T08:23:24.995Z,45.10
2018-05-08T08:25:52.551Z,45.10
2018-05-08T08:28:20.112Z,45.70
2018-05-08T08:30:47.782Z,45.30
2018-05-08T08:33:15.333Z,45.80
2018-05-08T08:35:42.880Z,44.70
2018-05-08T08:38:10.425Z,43.50
2018-05-08T08:40:38.787Z,42.60
2018-05-08T08:43:06.398Z,42.60
2018-05-08T08:45:33.978Z,44.30
2018-05-08T08:48:01.543Z,41.70
2018-05-08T08:50:29.074Z,42.00
2018-05-08T08:52:57.382Z,41.80
2018-05-08T08:55:24.925Z,41.80
2018-05-08T08:57:53.216Z,42.70
2018-05-08T09:00:20.771Z,42.70
2018-05-08T09:02:49.064Z,42.20
2018-05-08T09:05:16.602Z,42.20
2018-05-08T09:07:44.142Z,44.80
2018-05-08T09:10:11.705Z,43.20
2018-05-08T09:12:39.275Z,40.90
2018-05-08T09:15:06.848Z,40.30
2018-05-08T09:17:34.414Z,41.00
2018-05-08T09:20:01.987Z,41.20
2018-05-08T09:22:29.554Z,40.60
2018-05-08T09:24:57.109Z,42.10
2018-05-08T09:27:24.770Z,42.60
2018-05-08T09:29:52.274Z,42.30
2018-05-08T09:32:19.842Z,39.90
2018-05-08T09:34:47.401Z,40.50
2018-05-08T09:37:14.954Z,40.30
2018-05-08T09:39:43.265Z,39.90
2018-05-08T09:42:10.872Z,39.90
2018-05-08T09:44:38.409Z,40.20
2018-05-08T09:47:05.990Z,39.60
2018-05-08T09:49:33.580Z,40.60
2018-05-08T09:52:01.882Z,40.00
2018-05-08T09:54:29.445Z,40.00
2018-05-08T09:56:56.977Z,39.60
2018-05-08T09:59:24.597Z,40.80
2018-05-08T10:01:52.226Z,38.70
2018-05-08T10:04:20.534Z,38.40
2018-05-08T10:06:48.132Z,38.40
2018-05-08T10:09:15.656Z,39.40
2018-05-08T10:11:43.222Z,38.90
2018-05-08T10:14:10.790Z,37.50
2018-05-08T10:16:38.369Z,38.30
2018-05-08T10:19:05.963Z,37.90
2018-05-08T10:21:33.589Z,37.50
2018-05-08T10:24:01.140Z,37.10
2018-05-08T10:26:28.744Z,37.20
2018-05-08T10:28:56.388Z,36.30
2018-05-08T10:31:23.974Z,38.40
2018-05-08T10:33:51.521Z,35.10
2018-05-08T10:36:19.079Z,36.80
2018-05-08T10:38:46.638Z,35.00
2018-05-08T10:41:14.204Z,35.00
2018-05-08T10:43:41.761Z,35.30
2018-05-08T10:46:09.292Z,36.50
2018-05-08T10:48:36.901Z,36.10
2018-05-08T10:51:04.434Z,35.80
2018-05-08T10:53:32.764Z,34.20
2018-05-08T10:56:00.326Z,34.40
2018-05-08T10:58:27.870Z,33.90
2018-05-08T11:00:55.434Z,33.30
2018-05-08T11:03:22.970Z,33.80
2018-05-08T11:05:50.501Z,36.30
2018-05-08T11:08:18.061Z,35.40
2018-05-08T11:10:45.593Z,32.80
2018-05-08T11:13:13.149Z,32.50
2018-05-08T11:15:40.705Z,32.50
2018-05-08T11:18:08.257Z,33.60
2018-05-08T11:20:36.582Z,33.70
2018-05-08T11:23:04.123Z,33.60
2018-05-08T11:25:31.687Z,34.80
2018-05-08T11:27:59.243Z,33.90
2018-05-08T11:30:26.781Z,32.60
2018-05-08T11:32:54.337Z,32.60
2018-05-08T11:35:21.874Z,33.40
2018-05-08T11:37:49.477Z,31.90
2018-05-08T11:40:17.787Z,31.00
2018-05-08T11:42:45.350Z,31.00
2018-05-08T11:45:12.901Z,32.00
2018-05-08T11:47:40.471Z,32.20
2018-05-08T11:50:08.047Z,30.90
2018-05-08T11:52:35.647Z,30.90
2018-05-08T11:55:03.235Z,31.80
2018-05-08T11:57:30.784Z,33.60
2018-05-08T11:59:58.348Z,31.90
2018-05-08T12:02:25.888Z,32.30
2018-05-08T12:04:53.461Z,32.60
2018-05-08T12:07:20.994Z,31.10
2018-05-08T12:09:48.544Z,33.00
2018-05-08T12:12:16.869Z,32.20
2018-05-08T12:14:44.426Z,32.20
2018-05-08T12:17:11.956Z,32.60
2018-05-08T12:19:40.254Z,31.20
2018-05-08T12:22:07.818Z,31.40
2018-05-08T12:24:35.497Z,30.80
2018-05-08T12:27:03.032Z,32.30
2018-05-08T12:29:31.350Z,32.00
2018-05-08T12:31:58.891Z,32.00
2018-05-08T12:34:26.519Z,31.50
2018-05-08T12:36:54.073Z,33.00
2018-05-08T12:39:21.612Z,32.80
2018-05-08T12:41:49.176Z,32.70
2018-05-08T12:44:16.737Z,31.90
2018-05-08T12:46:44.422Z,33.10
2018-05-08T12:49:11.900Z,32.70
2018-05-08T12:51:39.462Z,32.90
2018-05-08T12:54:07.027Z,33.20
2018-05-08T12:56:35.353Z,34.20
2018-05-08T12:59:02.997Z,34.20
2018-05-08T13:01:30.509Z,32.70
2018-05-08T13:03:58.053Z,32.70
2018-05-08T13:06:25.631Z,32.90
2018-05-08T13:08:53.164Z,33.30
2018-05-08T13:11:20.849Z,34.50
2018-05-08T13:13:48.480Z,34.20
2018-05-08T13:16:16.842Z,34.40
2018-05-08T13:18:44.451Z,34.40
2018-05-08T13:21:12.119Z,34.70
2018-05-08T13:23:39.662Z,34.10
2018-05-08T13:26:08.051Z,34.00
2018-05-08T13:28:35.626Z,34.00
2018-05-08T13:31:03.245Z,34.40
2018-05-08T13:33:30.818Z,32.70
2018-05-08T13:35:58.394Z,32.80
2018-05-08T13:38:26.731Z,33.60
2018-05-08T13:40:54.282Z,33.60
2018-05-08T13:43:21.833Z,32.30
2018-05-08T13:45:49.385Z,33.10
2018-05-08T13:48:16.973Z,32.90
2018-05-08T13:50:44.599Z,33.10
2018-05-08T13:53:12.908Z,31.40
2018-05-08T13:55:40.450Z,31.40
2018-05-08T13:58:08.827Z,32.40
2018-05-08T14:00:37.125Z,33.10
2018-05-08T14:03:05.455Z,32.90
2018-05-08T14:05:33.061Z,32.90
2018-05-08T14:08:00.587Z,32.80
2018-05-08T14:10:28.121Z,32.30
2018-05-08T14:12:55.654Z,32.70
2018-05-08T14:15:24.039Z,32.70
2018-05-08T14:17:51.569Z,32.70
2018-05-08T14:20:19.154Z,34.90
2018-05-08T14:22:47.486Z,33.30
2018-05-08T14:25:15.036Z,33.30
2018-05-08T14:27:42.598Z,33.80
2018-05-08T14:30:10.148Z,34.60
2018-05-08T14:32:37.690Z,34.20
2018-05-08T14:35:06.022Z,33.60
2018-05-08T14:37:33.577Z,33.60
2018-05-08T14:40:01.115Z,33.10
2018-05-08T14:42:28.646Z,33.60
2018-05-08T14:44:56.211Z,34.70
2018-05-08T14:47:23.787Z,33.80
2018-05-08T14:49:51.379Z,34.20
2018-05-08T14:52:18.919Z,36.00
2018-05-08T14:54:47.250Z,35.00
2018-05-08T14:57:14.816Z,35.00
2018-05-08T14:59:42.351Z,35.10
2018-05-08T15:02:09.943Z,34.60
2018-05-08T15:04:37.533Z,34.80
2018-05-08T15:07:05.122Z,34.70
2018-05-08T15:09:33.548Z,34.90
2018-05-08T15:12:01.110Z,34.90
2018-05-08T15:14:28.679Z,35.30
2018-05-08T15:16:56.228Z,35.30
2018-05-08T15:19:23.809Z,35.20
2018-05-08T15:21:51.382Z,35.40
2018-05-08T15:24:18.962Z,35.00
2018-05-08T15:26:46.500Z,34.70
2018-05-08T15:29:14.047Z,35.60
2018-05-08T15:31:41.590Z,35.90
2018-05-08T15:34:09.900Z,35.80
2018-05-08T15:36:37.459Z,35.80
2018-05-08T15:39:05.846Z,35.40
2018-05-08T15:41:33.452Z,35.60
2018-05-08T15:44:00.989Z,35.60
2018-05-08T15:46:28.523Z,35.10
2018-05-08T15:48:56.834Z,35.30
2018-05-08T15:51:24.389Z,35.30
2018-05-08T15:53:51.946Z,35.10
2018-05-08T15:56:19.535Z,34.80
2018-05-08T15:58:47.117Z,36.10
2018-05-08T16:01:14.681Z,36.30
2018-05-08T16:03:42.246Z,34.70
2018-05-08T16:06:09.814Z,35.20
2018-05-08T16:08:37.379Z,34.90
2018-05-08T16:11:04.950Z,36.20
2018-05-08T16:13:32.733Z,36.10
2018-05-08T16:16:00.872Z,35.80
2018-05-08T16:18:28.415Z,35.80
2018-05-08T16:20:56.043Z,36.20
2018-05-08T16:23:24.475Z,35.40
2018-05-08T16:25:52.028Z,35.40
2018-05-08T16:28:19.584Z,36.30
2018-05-08T16:30:47.142Z,36.30
2018-05-08T16:33:14.681Z,36.10
2018-05-08T16:35:43.015Z,36.90
2018-05-08T16:38:10.623Z,36.90
2018-05-08T16:40:38.190Z,36.20
2018-05-08T16:43:06.547Z,36.90
2018-05-08T16:45:34.136Z,36.90
2018-05-08T16:48:01.699Z,36.00
2018-05-08T16:50:30.034Z,37.50
2018-05-08T16:52:57.583Z,37.40
2018-05-08T16:55:25.159Z,38.30
2018-05-08T16:57:52.700Z,37.60
2018-05-08T17:00:20.307Z,37.80
2018-05-08T17:02:47.874Z,39.00
2018-05-08T17:05:15.413Z,38.70
2018-05-08T17:07:42.973Z,38.80
2018-05-08T17:10:10.527Z,38.10
2018-05-08T17:12:38.099Z,39.40
2018-05-08T17:15:05.712Z,38.90
2018-05-08T17:17:33.283Z,39.00
2018-05-08T17:20:01.665Z,40.00
2018-05-08T17:22:29.239Z,40.00
2018-05-08T17:24:57.580Z,39.60
2018-05-08T17:27:25.140Z,39.60
2018-05-08T17:29:52.702Z,39.90
2018-05-08T17:32:20.241Z,40.60
2018-05-08T17:34:47.787Z,41.60
2018-05-08T17:37:16.115Z,40.80
2018-05-08T17:39:43.697Z,40.80
2018-05-08T17:42:11.294Z,40.80
2018-05-08T17:44:39.617Z,41.30
2018-05-08T17:47:07.157Z,41.30
2018-05-08T17:49:34.707Z,41.90
2018-05-08T17:52:03.039Z,42.20
2018-05-08T17:54:30.635Z,42.20
2018-05-08T17:56:58.199Z,41.40
2018-05-08T17:59:26.516Z,41.70
2018-05-08T18:01:54.073Z,41.70
2018-05-08T18:04:21.664Z,43.60
2018-05-08T18:06:49.216Z,43.40
2018-05-08T18:09:16.760Z,42.50
2018-05-08T18:11:45.129Z,43.00
2018-05-08T18:14:13.524Z,44.20
2018-05-08T18:16:41.854Z,43.40
2018-05-08T18:19:09.399Z,43.40
2018-05-08T18:21:36.976Z,41.90
2018-05-08T18:24:04.566Z,44.00
2018-05-08T18:26:32.120Z,45.00
2018-05-08T18:28:59.677Z,45.00
2018-05-08T18:31:27.255Z,44.30
2018-05-08T18:33:54.800Z,45.90
2018-05-08T18:36:22.383Z,45.40
2018-05-08T18:38:49.950Z,46.20
2018-05-08T18:41:17.519Z,46.30
2018-05-08T18:43:45.104Z,46.90
2018-05-08T18:46:13.406Z,44.60
2018-05-08T18:48:41.002Z,44.60
2018-05-08T18:51:08.542Z,48.40
2018-05-08T18:53:36.082Z,48.80
2018-05-08T18:56:04.447Z,49.10
2018-05-08T18:58:32.001Z,49.10
2018-05-08T19:00:59.541Z,50.80
2018-05-08T19:03:27.111Z,50.00
2018-05-08T19:05:54.918Z,52.30
2018-05-08T19:08:23.227Z,52.00
2018-05-08T19:10:56.472Z,52.00
2018-05-08T19:13:24.064Z,52.10
2018-05-08T19:15:57.862Z,52.40
2018-05-08T19:18:31.151Z,52.40
2018-05-08T19:20:58.843Z,52.80
2018-05-08T19:23:26.431Z,52.50
2018-05-08T19:25:53.993Z,51.90
2018-05-08T19:28:27.274Z,52.40
2018-05-08T19:30:59.914Z,53.00
2018-05-08T19:33:27.515Z,53.00
2018-05-08T19:36:01.495Z,53.50
2018-05-08T19:38:29.083Z,53.50
2018-05-08T19:40:57.410Z,52.80
2018-05-08T19:43:24.943Z,52.80
2018-05-08T19:45:52.506Z,53.60
2018-05-08T19:48:20.042Z,54.00
2018-05-08T19:50:47.569Z,54.00
2018-05-08T19:53:15.130Z,54.40
2018-05-08T19:55:42.745Z,54.40
2018-05-08T19:58:11.051Z,55.00
2018-05-08T20:00:38.611Z,55.00
2018-05-08T20:03:06.195Z,54.70
2018-05-08T20:05:33.775Z,54.60
2018-05-08T20:08:01.350Z,54.60
2018-05-08T20:10:28.900Z,54.20
2018-05-08T20:12:56.462Z,54.20
2018-05-08T20:15:24.116Z,54.10
2018-05-08T20:17:51.659Z,55.10
2018-05-08T20:20:19.208Z,55.90
2018-05-08T20:22:47.529Z,55.40
2018-05-08T20:25:15.128Z,55.40
2018-05-08T20:27:42.670Z,55.40
2018-05-08T20:30:10.249Z,54.60
2018-05-08T20:32:37.786Z,55.40
2018-05-08T20:35:05.337Z,56.00
2018-05-08T20:37:32.939Z,55.80
2018-05-08T20:40:00.479Z,56.20
2018-05-08T20:42:28.039Z,57.00
2018-05-08T20:44:55.595Z,58.20
2018-05-08T20:47:23.154Z,58.50
2018-05-08T20:49:50.719Z,58.10
2018-05-08T20:52:18.278Z,58.80
2018-05-08T20:54:45.847Z,57.70
2018-05-08T20:57:13.387Z,58.30
2018-05-08T20:59:41.711Z,58.60
2018-05-08T21:02:09.275Z,58.60
2018-05-08T21:04:36.839Z,59.40
2018-05-08T21:07:04.379Z,59.30
2018-05-08T21:09:31.936Z,59.20
2018-05-08T21:12:00.258Z,60.10
2018-05-08T21:14:27.822Z,60.20
2018-05-08T21:16:55.373Z,59.70
2018-05-08T21:19:22.911Z,60.40
2018-05-08T21:21:50.448Z,60.80
2018-05-08T21:24:17.979Z,61.10
2018-05-08T21:26:45.538Z,60.20
2018-05-08T21:29:18.758Z,60.00
2018-05-08T21:31:46.320Z,60.90
2018-05-08T21:34:13.864Z,60.50
2018-05-08T21:36:41.419Z,60.20
2018-05-08T21:39:08.994Z,60.80
2018-05-08T21:41:36.578Z,60.60
2018-05-08T21:44:04.147Z,61.10
2018-05-08T21:46:31.742Z,61.80
2018-05-08T21:49:00.067Z,62.00
2018-05-08T21:51:27.616Z,62.00
2018-05-08T21:53:55.176Z,62.10
2018-05-08T21:56:22.730Z,62.50
2018-05-08T21:58:50.319Z,62.70
2018-05-08T22:01:17.884Z,63.30
2018-05-08T22:03:45.447Z,63.20
2018-05-08T22:06:12.989Z,63.60
2018-05-08T22:08:40.549Z,63.70
2018-05-08T22:11:08.127Z,64.40
2018-05-08T22:13:35.690Z,63.90
2018-05-08T22:16:03.241Z,64.10
2018-05-08T22:18:30.776Z,64.60
2018-05-08T22:20:58.334Z,64.90
2018-05-08T22:23:25.917Z,64.20
2018-05-08T22:25:54.214Z,64.70
2018-05-08T22:28:21.770Z,64.70
2018-05-08T22:30:49.339Z,65.30
2018-05-08T22:33:16.873Z,65.70
2018-05-08T22:35:44.438Z,65.30
2018-05-08T22:38:11.974Z,65.30
2018-05-08T22:40:39.529Z,65.20
2018-05-08T22:43:07.058Z,65.90
2018-05-08T22:45:34.619Z,65.90
2018-05-08T22:48:02.188Z,66.00
2018-05-08T22:50:29.726Z,65.70
2018-05-08T22:52:58.063Z,66.30
2018-05-08T22:55:25.632Z,66.30
2018-05-08T22:57:53.198Z,65.90
2018-05-08T23:00:21.703Z,65.40
2018-05-08T23:02:49.254Z,65.50
2018-05-08T23:05:16.798Z,65.60
2018-05-08T23:07:44.382Z,66.10
2018-05-08T23:10:11.942Z,66.80
2018-05-08T23:12:39.496Z,66.50
2018-05-08T23:15:07.062Z,66.70
2018-05-08T23:17:34.661Z,67.00
2018-05-08T23:20:02.184Z,66.60
2018-05-08T23:22:29.709Z,66.70
2018-05-08T23:24:58.020Z,66.90
2018-05-08T23:27:25.579Z,66.90
2018-05-08T23:29:53.195Z,67.20
2018-05-08T23:32:20.720Z,67.20
2018-05-08T23:34:48.266Z,67.60
2018-05-08T23:37:15.806Z,68.00
2018-05-08T23:39:44.126Z,68.10
2018-05-08T23:42:11.663Z,68.10
2018-05-08T23:44:40.055Z,68.10
2018-05-08T23:47:07.586Z,68.10
2018-05-08T23:49:35.183Z,68.70
2018-05-08T23:52:02.718Z,68.50
2018-05-08T23:54:30.268Z,68.70
2018-05-08T23:56:57.831Z,69.20
2018-05-08T23:59:25.382Z,68.60
